Time;durP1;ratioP1;P1;durP2;ratioP2;P2;SDS_P1;SDS_P2;PMS_P1;PMS_P2;Temp;Humidity;BMP_temperature;BMP_pressure;BME280_temperature;BME280_humidity;BME280_pressure;Samples;Min_cycle;Max_cycle;Signal;HPM_P1;HPM_P2
2023/01/16 00:00:38;;;;;;;37.70;18.70;;;;;;;1.54;100.00;100704.39;107948;1244;62899;-71
2023/01/16 00:03:27;;;;;;;41.50;19.10;;;;;;;1.56;100.00;100706.71;108029;1235;58927;-70
2023/01/16 00:05:56;;;;;;;39.80;19.10;;;;;;;1.60;100.00;100710.70;108002;1247;58960;-69
2023/01/16 00:08:25;;;;;;;37.20;16.90;;;;;;;1.64;100.00;100711.94;107955;1242;62506;-70
2023/01/16 00:10:54;;;;;;;38.60;18.50;;;;;;;1.68;100.00;100704.09;108087;1238;61092;-69
2023/01/16 00:13:23;;;;;;;34.10;16.70;;;;;;;1.71;100.00;100696.59;108112;1237;59518;-69
2023/01/16 00:15:52;;;;;;;32.30;15.30;;;;;;;1.74;100.00;100699.40;108035;1237;62774;-70
2023/01/16 00:18:21;;;;;;;39.20;17.50;;;;;;;1.78;100.00;100704.21;108011;1239;58929;-69
2023/01/16 00:20:50;;;;;;;35.90;18.00;;;;;;;1.81;100.00;100708.23;108112;1241;59022;-70
2023/01/16 00:23:19;;;;;;;36.10;17.40;;;;;;;1.83;100.00;100713.16;108012;1244;62708;-69
2023/01/16 00:25:48;;;;;;;35.40;17.30;;;;;;;1.84;100.00;100714.82;108059;1247;62840;-71
2023/01/16 00:28:17;;;;;;;38.60;17.80;;;;;;;1.88;100.00;100713.82;108042;1239;59507;-69
2023/01/16 00:30:46;;;;;;;31.00;16.50;;;;;;;1.90;100.00;100710.84;107974;1238;62960;-69
2023/01/16 00:33:16;;;;;;;36.00;17.20;;;;;;;1.90;100.00;100705.51;108034;1238;59019;-70
2023/01/16 00:35:46;;;;;;;37.50;17.30;;;;;;;1.93;100.00;100704.38;108118;1238;60290;-70
2023/01/16 00:38:15;;;;;;;33.20;16.70;;;;;;;1.96;100.00;100705.11;108039;1247;62625;-69
2023/01/16 00:40:44;;;;;;;39.80;17.70;;;;;;;1.94;100.00;100703.99;108029;1241;61105;-72
2023/01/16 00:43:13;;;;;;;34.50;17.80;;;;;;;1.98;100.00;100693.54;108084;1240;59759;-71
2023/01/16 00:45:42;;;;;;;37.70;17.20;;;;;;;2.03;100.00;100688.55;108057;1247;62255;-70
2023/01/16 00:48:11;;;;;;;38.00;17.90;;;;;;;2.05;100.00;100691.89;108003;1245;58926;-71
2023/01/16 00:50:40;;;;;;;36.60;15.70;;;;;;;2.05;100.00;100686.77;108020;1240;60678;-71
2023/01/16 00:53:09;;;;;;;36.00;17.20;;;;;;;1.96;100.00;100681.44;108077;1245;74617;-71
2023/01/16 00:55:41;;;;;;;43.20;19.50;;;;;;;1.95;100.00;100685.05;108037;1245;72419;-67
2023/01/16 00:58:10;;;;;;;35.60;17.70;;;;;;;1.94;100.00;100686.16;108110;1247;60494;-69
2023/01/16 01:00:39;;;;;;;35.70;18.10;;;;;;;1.90;100.00;100681.13;108025;1247;74897;-69
2023/01/16 01:03:09;;;;;;;36.20;17.80;;;;;;;1.87;100.00;100677.11;108088;1235;62466;-67
2023/01/16 01:05:39;;;;;;;36.80;18.40;;;;;;;1.87;100.00;100677.27;108195;1247;58498;-69
2023/01/16 01:08:08;;;;;;;35.60;17.50;;;;;;;1.90;100.00;100674.59;108401;1239;73494;-69
2023/01/16 01:10:38;;;;;;;38.00;18.10;;;;;;;1.94;100.00;100675.30;108265;1235;72202;-69
2023/01/16 01:13:07;;;;;;;35.70;17.20;;;;;;;2.01;100.00;100677.11;108078;1239;60599;-70
2023/01/16 01:15:36;;;;;;;33.00;16.70;;;;;;;2.08;100.00;100677.52;108032;1247;62762;-69
2023/01/16 01:18:05;;;;;;;37.40;17.80;;;;;;;2.11;100.00;100673.66;108076;1236;58949;-69
2023/01/16 01:20:37;;;;;;;34.50;16.90;;;;;;;2.12;100.00;100669.64;108047;1238;59276;-69
2023/01/16 01:23:06;;;;;;;34.20;17.60;;;;;;;2.10;100.00;100660.63;108124;1247;62281;-69
2023/01/16 01:25:38;;;;;;;31.90;16.70;;;;;;;2.12;100.00;100659.30;108185;1239;62124;-69
2023/01/16 01:28:07;;;;;;;36.10;16.90;;;;;;;2.17;100.00;100656.41;108152;1247;59148;-68
2023/01/16 01:30:38;;;;;;;34.90;17.00;;;;;;;2.20;100.00;100654.91;108098;1247;73245;-68
2023/01/16 01:33:09;;;;;;;35.80;16.90;;;;;;;2.19;100.00;100651.34;108172;1238;60980;-70
2023/01/16 01:35:38;;;;;;;35.60;16.50;;;;;;;2.19;100.00;100645.14;108110;1241;62114;-69
2023/01/16 01:38:07;;;;;;;32.70;16.70;;;;;;;2.21;100.00;100646.97;108208;1238;64590;-69
2023/01/16 01:40:36;;;;;;;34.80;17.00;;;;;;;2.26;100.00;100639.89;108126;1239;61085;-67
2023/01/16 01:43:15;;;;;;;30.60;16.00;;;;;;;2.31;100.00;100633.49;108190;1247;59426;-68
2023/01/16 01:45:53;;;;;;;31.40;15.50;;;;;;;2.27;100.00;100632.11;108160;1239;73684;-66
2023/01/16 01:48:29;;;;;;;33.30;17.10;;;;;;;2.26;100.00;100633.88;108157;1237;60993;-68
2023/01/16 01:51:06;;;;;;;34.50;16.90;;;;;;;2.23;100.00;100628.85;108157;1238;60656;-68
2023/01/16 01:53:55;;;;;;;35.20;17.70;;;;;;;2.17;100.00;100631.14;108152;1238;73922;-66
2023/01/16 01:56:46;;;;;;;36.30;16.60;;;;;;;2.20;100.00;100629.98;108165;1243;62872;-68
2023/01/16 01:59:23;;;;;;;36.30;17.80;;;;;;;2.24;100.00;100628.99;108175;1245;70529;-70
2023/01/16 02:01:53;;;;;;;36.90;16.50;;;;;;;2.22;100.00;100625.27;108047;1247;63017;-67
2023/01/16 02:04:31;;;;;;;32.80;16.30;;;;;;;2.21;100.00;100626.32;108065;1237;61258;-68
2023/01/16 02:07:06;;;;;;;29.90;15.50;;;;;;;2.27;100.00;100626.61;109324;1235;61894;-69
2023/01/16 02:09:36;;;;;;;34.70;15.70;;;;;;;2.25;100.00;100627.56;108164;1235;64406;-67
2023/01/16 02:12:13;;;;;;;33.90;17.60;;;;;;;2.29;100.00;100624.67;108103;1238;61602;-66
2023/01/16 02:14:47;;;;;;;34.10;17.20;;;;;;;2.25;100.00;100622.77;107959;1247;60323;-69
2023/01/16 02:20:24;;;;;;;31.50;16.40;;;;;;;2.30;100.00;100628.39;108147;1238;58936;-65
2023/01/16 02:23:58;;;;;;;33.90;15.60;;;;;;;2.39;100.00;100627.35;108137;1235;60485;-67
2023/01/16 02:27:05;;;;;;;33.50;15.90;;;;;;;2.45;100.00;100631.05;108009;1236;63102;-67
2023/01/16 02:29:50;;;;;;;27.10;13.20;;;;;;;2.49;100.00;100628.00;108183;1237;61158;-67
2023/01/16 02:32:42;;;;;;;33.70;16.60;;;;;;;2.40;100.00;100632.27;108037;1243;59490;-67
2023/01/16 02:35:21;;;;;;;31.30;15.80;;;;;;;2.37;100.00;100630.85;107922;1246;62780;-67
2023/01/16 02:38:31;;;;;;;33.90;16.00;;;;;;;2.44;99.94;100630.10;108097;1235;58862;-67
2023/01/16 02:41:30;;;;;;;32.30;15.70;;;;;;;2.38;99.18;100629.45;108070;1238;60905;-69
2023/01/16 02:44:34;;;;;;;31.60;14.80;;;;;;;2.32;99.57;100627.96;107990;1235;72650;-71
2023/01/16 02:47:27;;;;;;;35.50;17.00;;;;;;;2.34;99.91;100629.27;108014;1247;62016;-69
2023/01/16 02:50:38;;;;;;;31.60;16.60;;;;;;;2.36;99.88;100626.42;108070;1246;59195;-68
2023/01/16 02:53:28;;;;;;;33.90;16.80;;;;;;;2.35;99.98;100619.79;108044;1244;63017;-70
2023/01/16 02:56:08;;;;;;;30.90;15.20;;;;;;;2.33;99.98;100616.23;107953;1239;61290;-70
2023/01/16 02:58:46;;;;;;;32.40;17.00;;;;;;;2.38;100.00;100617.41;107987;1238;59154;-69
2023/01/16 03:01:18;;;;;;;31.50;17.60;;;;;;;2.35;99.77;100619.78;108077;1237;62944;-69
2023/01/16 03:03:53;;;;;;;32.20;17.60;;;;;;;2.33;99.89;100614.17;108080;1247;72087;-69
2023/01/16 03:06:36;;;;;;;30.30;16.30;;;;;;;2.29;99.98;100606.41;108186;1247;60627;-69
2023/01/16 03:09:45;;;;;;;32.50;15.60;;;;;;;2.21;100.00;100607.61;110437;1235;72812;-69
2023/01/16 03:12:45;;;;;;;33.00;17.40;;;;;;;2.31;100.00;100599.98;110396;1235;62234;-68
2023/01/16 03:15:35;;;;;;;34.00;15.90;;;;;;;2.30;100.00;100599.02;110394;1236;58095;-70
2023/01/16 03:18:12;;;;;;;32.40;15.90;;;;;;;2.28;100.00;100598.57;110432;1235;72710;-71
2023/01/16 03:21:02;;;;;;;29.00;15.50;;;;;;;2.35;100.00;100592.44;110459;1235;71352;-71
2023/01/16 03:23:54;;;;;;;29.00;14.50;;;;;;;2.34;99.71;100590.42;110184;1235;60023;-71
2023/01/16 03:26:43;;;;;;;32.70;15.70;;;;;;;2.30;99.84;100589.71;110204;1239;63697;-70
2023/01/16 03:30:05;;;;;;;32.60;15.60;;;;;;;2.34;99.91;100586.11;110399;1237;57310;-71
2023/01/16 03:32:45;;;;;;;28.30;14.90;;;;;;;2.28;99.38;100582.08;110149;1235;60350;-71
2023/01/16 03:35:18;;;;;;;28.30;14.50;;;;;;;2.31;99.48;100581.63;110307;1234;73290;-69
2023/01/16 03:37:57;;;;;;;32.70;15.50;;;;;;;2.32;99.21;100586.73;110314;1238;61839;-68
2023/01/16 03:40:33;;;;;;;29.00;15.20;;;;;;;2.29;99.68;100591.83;110194;1238;68739;-68
2023/01/16 03:43:18;;;;;;;33.70;15.80;;;;;;;2.38;99.74;100588.69;110158;1235;74352;-69
2023/01/16 03:46:06;;;;;;;29.20;14.50;;;;;;;2.52;99.19;100578.68;110110;1237;61809;-69
2023/01/16 03:48:59;;;;;;;34.70;16.20;;;;;;;2.45;98.82;100575.55;110217;1237;57711;-68
2023/01/16 03:51:37;;;;;;;31.90;15.40;;;;;;;2.41;98.84;100578.80;110105;1235;73862;-68
2023/01/16 03:54:33;;;;;;;30.30;14.00;;;;;;;2.52;99.27;100585.75;110195;1235;72138;-71
2023/01/16 03:57:17;;;;;;;29.80;14.70;;;;;;;2.54;98.92;100582.39;110144;1235;69789;-70
2023/01/16 03:59:47;;;;;;;30.90;14.80;;;;;;;2.44;98.20;100579.86;110169;1235;74156;-70
2023/01/16 04:02:55;;;;;;;26.50;13.10;;;;;;;2.38;98.47;100576.00;110261;1235;61584;-68
2023/01/16 04:05:40;;;;;;;30.60;14.50;;;;;;;2.52;98.65;100573.02;110006;1235;61792;-69
2023/01/16 04:08:16;;;;;;;31.20;14.80;;;;;;;2.49;98.87;100574.89;110340;1235;62978;-69
2023/01/16 04:10:48;;;;;;;28.80;14.20;;;;;;;2.44;98.67;100574.70;110328;1235;72156;-69
2023/01/16 04:13:33;;;;;;;31.90;16.40;;;;;;;2.50;98.78;100576.23;110198;1235;70828;-70
2023/01/16 04:16:08;;;;;;;32.60;15.50;;;;;;;2.51;98.63;100577.89;110289;1235;74534;-69
2023/01/16 04:18:37;;;;;;;30.60;14.30;;;;;;;2.53;98.42;100572.83;110298;1236;62741;-71
2023/01/16 04:21:07;;;;;;;32.50;16.80;;;;;;;2.52;97.87;100568.58;110227;1235;61173;-71
2023/01/16 04:23:36;;;;;;;30.90;14.30;;;;;;;2.53;97.76;100570.56;110327;1238;62900;-70
2023/01/16 04:26:05;;;;;;;34.50;17.60;;;;;;;2.45;97.59;100568.16;110436;1237;60866;-70
2023/01/16 04:28:34;;;;;;;33.50;16.20;;;;;;;2.36;98.43;100570.75;110364;1235;70018;-70
2023/01/16 04:31:03;;;;;;;31.80;15.30;;;;;;;2.46;98.60;100570.36;110422;1235;74777;-71
2023/01/16 04:33:31;;;;;;;33.00;16.90;;;;;;;2.46;98.41;100565.05;110344;1235;62770;-71
2023/01/16 04:36:00;;;;;;;33.30;16.80;;;;;;;2.47;98.43;100561.74;110440;1237;57689;-71
2023/01/16 04:38:29;;;;;;;32.80;16.00;;;;;;;2.49;98.49;100563.70;110459;1237;62186;-69
2023/01/16 04:40:58;;;;;;;30.20;15.70;;;;;;;2.43;97.99;100563.27;110475;1235;60666;-70
2023/01/16 04:43:27;;;;;;;32.80;16.10;;;;;;;2.39;98.16;100565.11;110526;1235;70492;-70
2023/01/16 04:45:55;;;;;;;31.90;16.30;;;;;;;2.39;98.46;100564.45;110505;1235;74760;-71
2023/01/16 04:48:24;;;;;;;32.10;15.90;;;;;;;2.43;98.02;100564.64;110443;1235;57505;-75
2023/01/16 04:50:53;;;;;;;30.80;16.00;;;;;;;2.40;97.77;100567.50;110261;1238;57765;-70
2023/01/16 04:53:22;;;;;;;28.80;13.90;;;;;;;2.40;98.31;100563.38;110436;1237;62902;-70
2023/01/16 04:55:51;;;;;;;32.30;16.20;;;;;;;2.36;97.88;100559.25;110345;1235;61658;-72
2023/01/16 04:58:20;;;;;;;31.20;15.30;;;;;;;2.23;98.22;100562.52;110432;1234;70486;-72
2023/01/16 05:00:48;;;;;;;35.30;16.50;;;;;;;2.13;98.26;100563.95;110414;1234;73668;-72
2023/01/16 05:03:18;;;;;;;30.30;14.80;;;;;;;2.13;98.78;100565.14;110552;1235;57966;-71
2023/01/16 05:05:47;;;;;;;31.10;16.20;;;;;;;2.04;98.68;100567.56;110559;1235;60187;-71
2023/01/16 05:08:16;;;;;;;31.40;15.30;;;;;;;2.01;99.11;100559.41;110558;1234;73482;-71
2023/01/16 05:10:45;;;;;;;32.50;15.20;;;;;;;2.10;99.11;100554.96;110523;1235;72529;-73
2023/01/16 05:13:13;;;;;;;37.90;19.70;;;;;;;2.14;98.93;100550.34;110582;1235;70465;-72
2023/01/16 05:15:44;;;;;;;28.10;15.00;;;;;;;2.21;99.64;100546.80;110296;1233;63619;-75
2023/01/16 05:18:13;;;;;;;34.10;16.20;;;;;;;2.23;98.73;100545.31;110489;1234;62095;-73
2023/01/16 05:20:42;;;;;;;30.80;15.60;;;;;;;2.21;98.37;100540.59;110538;1237;57221;-73
2023/01/16 05:23:11;;;;;;;32.40;15.50;;;;;;;2.10;98.70;100527.14;110616;1236;63446;-74
2023/01/16 05:25:40;;;;;;;31.30;15.10;;;;;;;2.19;98.72;100532.60;110432;1238;61927;-73
2023/01/16 05:28:10;;;;;;;30.20;16.20;;;;;;;2.16;98.55;100529.13;110386;1237;60147;-73
2023/01/16 05:30:39;;;;;;;30.40;15.70;;;;;;;2.15;98.92;100522.98;110414;1234;73092;-73
2023/01/16 05:33:09;;;;;;;32.30;15.90;;;;;;;2.15;98.80;100524.86;110590;1235;62806;-76
2023/01/16 05:35:37;;;;;;;33.30;16.20;;;;;;;2.21;98.55;100526.19;110622;1237;61136;-72
2023/01/16 05:38:06;;;;;;;33.60;17.20;;;;;;;2.20;98.76;100521.90;110588;1234;62917;-74
2023/01/16 05:40:35;;;;;;;29.30;15.60;;;;;;;2.21;98.75;100519.64;110312;1238;61494;-72
2023/01/16 05:43:04;;;;;;;32.70;16.70;;;;;;;2.25;98.48;100516.39;110549;1233;69697;-73
2023/01/16 05:45:33;;;;;;;32.80;15.90;;;;;;;2.28;97.84;100519.35;110572;1235;73828;-72
2023/01/16 05:48:02;;;;;;;30.70;15.50;;;;;;;2.34;97.94;100517.55;110232;1235;61606;-74
2023/01/16 05:50:31;;;;;;;33.80;16.70;;;;;;;2.25;97.52;100514.31;110311;1235;61800;-75
2023/01/16 05:53:00;;;;;;;30.00;15.50;;;;;;;2.30;97.52;100509.64;110312;1234;73483;-73
2023/01/16 05:55:29;;;;;;;31.70;16.50;;;;;;;2.18;97.79;100511.85;110411;1235;72444;-73
2023/01/16 05:57:57;;;;;;;33.20;16.00;;;;;;;2.11;97.77;100516.27;110535;1235;70791;-74
2023/01/16 06:00:26;;;;;;;30.30;15.50;;;;;;;1.99;98.36;100517.59;110382;1238;63681;-73
2023/01/16 06:02:55;;;;;;;28.10;14.90;;;;;;;1.93;99.05;100521.62;110500;1234;58245;-74
2023/01/16 06:05:23;;;;;;;33.60;16.20;;;;;;;2.06;98.50;100525.26;110575;1235;61382;-73
2023/01/16 06:07:58;;;;;;;32.10;15.30;;;;;;;2.07;97.99;100517.48;110553;1235;62815;-73
2023/01/16 06:10:27;;;;;;;35.30;16.30;;;;;;;2.03;98.89;100511.61;110561;1235;61625;-73
2023/01/16 06:12:56;;;;;;;33.00;16.60;;;;;;;1.99;98.67;100516.23;110420;1235;68831;-74
2023/01/16 06:15:25;;;;;;;30.50;13.60;;;;;;;2.00;98.57;100517.05;110485;1234;63799;-74
2023/01/16 06:17:55;;;;;;;29.80;15.60;;;;;;;1.91;98.82;100520.15;110551;1236;61372;-74
2023/01/16 06:20:24;;;;;;;30.00;16.30;;;;;;;1.88;99.41;100518.22;110396;1236;60734;-73
2023/01/16 06:22:53;;;;;;;30.80;15.90;;;;;;;1.80;99.20;100514.40;110142;1234;73647;-75
2023/01/16 06:25:22;;;;;;;34.60;17.90;;;;;;;1.78;99.70;100508.99;110446;1233;72410;-74
2023/01/16 06:27:51;;;;;;;33.30;16.30;;;;;;;1.83;99.60;100505.53;110618;1235;70789;-74
2023/01/16 06:30:20;;;;;;;35.10;18.20;;;;;;;1.84;99.73;100501.04;110496;1235;63280;-75
2023/01/16 06:32:50;;;;;;;26.80;14.60;;;;;;;1.77;99.65;100503.20;110621;1234;60524;-73
2023/01/16 06:35:19;;;;;;;31.30;16.60;;;;;;;1.71;99.88;100504.30;110439;1234;60354;-74
2023/01/16 06:37:48;;;;;;;35.10;16.90;;;;;;;1.80;99.90;100507.36;110536;1234;73930;-76
2023/01/16 06:40:18;;;;;;;33.30;16.50;;;;;;;1.72;99.85;100508.38;110265;1235;238119;-75
2023/01/16 06:42:47;;;;;;;30.50;16.10;;;;;;;1.81;99.93;100509.37;110426;1237;60511;-76
2023/01/16 06:45:16;;;;;;;32.80;17.00;;;;;;;1.85;99.90;100507.19;110397;1237;63373;-75
2023/01/16 06:47:51;;;;;;;32.90;16.90;;;;;;;1.94;99.90;100506.84;110290;1237;62050;-74
2023/01/16 06:50:20;;;;;;;36.30;17.90;;;;;;;1.96;99.40;100511.39;110138;1235;60682;-75
2023/01/16 06:52:48;;;;;;;31.90;15.90;;;;;;;2.03;99.03;100515.89;110256;1235;73904;-74
2023/01/16 06:55:17;;;;;;;30.60;15.70;;;;;;;2.03;98.60;100514.17;110225;1235;61606;-73
2023/01/16 06:57:46;;;;;;;35.60;18.30;;;;;;;2.10;98.47;100515.80;110143;1235;60032;-73
2023/01/16 07:00:16;;;;;;;34.50;16.90;;;;;;;2.13;97.90;100514.63;110225;1236;70994;-74
2023/01/16 07:02:56;;;;;;;32.90;15.70;;;;;;;2.14;97.69;100515.45;110130;1238;61366;-74
2023/01/16 07:05:28;;;;;;;35.70;17.70;;;;;;;2.12;97.78;100512.09;110007;1235;57629;-73
2023/01/16 07:07:57;;;;;;;34.20;17.10;;;;;;;2.19;97.33;100511.50;110172;1235;73501;-74
2023/01/16 07:10:27;;;;;;;40.60;19.20;;;;;;;2.21;97.86;100508.48;109863;1235;69862;-75
2023/01/16 07:12:55;;;;;;;38.20;18.40;;;;;;;2.35;97.42;100508.92;109982;1235;70443;-74
2023/01/16 07:24:02;;;;;;;34.90;17.70;;;;;;;2.13;97.33;100508.10;109988;1235;73469;-73
2023/01/16 07:26:33;;;;;;;37.90;18.30;;;;;;;2.11;97.42;100501.49;110284;1235;71912;-74
2023/01/16 07:29:03;;;;;;;34.80;17.30;;;;;;;2.18;97.33;100503.95;110287;1235;68339;-73
2023/01/16 07:31:33;;;;;;;30.90;15.20;;;;;;;2.23;97.35;100509.27;110177;1235;74291;-75
2023/01/16 07:34:02;;;;;;;39.20;18.60;;;;;;;2.37;96.87;100506.25;110199;1237;61686;-73
2023/01/16 07:36:31;;;;;;;33.20;18.40;;;;;;;2.47;96.09;100503.45;110277;1235;60370;-73
2023/01/16 07:38:59;;;;;;;36.50;19.20;;;;;;;2.56;95.63;100505.45;110193;1235;73858;-74
2023/01/16 07:41:28;;;;;;;37.50;19.70;;;;;;;2.68;95.55;100507.56;110267;1235;62536;-73
2023/01/16 07:43:57;;;;;;;42.00;21.40;;;;;;;2.87;94.88;100505.01;110288;1235;59221;-73
2023/01/16 07:46:27;;;;;;;38.50;20.30;;;;;;;2.80;93.88;100501.34;110099;1235;72041;-74
2023/01/16 07:48:57;;;;;;;38.40;19.50;;;;;;;2.87;94.46;100504.61;109901;1239;57660;-73
2023/01/16 07:51:26;;;;;;;34.60;17.80;;;;;;;3.04;94.85;100505.61;110287;1235;60112;-74
2023/01/16 07:53:55;;;;;;;35.20;17.10;;;;;;;3.08;94.75;100509.73;110346;1235;72361;-74
2023/01/16 07:56:23;;;;;;;34.80;18.30;;;;;;;3.14;94.76;100512.40;110437;1235;72461;-74
2023/01/16 07:58:54;;;;;;;34.00;18.80;;;;;;;3.15;93.86;100505.27;110323;1235;69293;-73
2023/01/16 08:01:23;;;;;;;33.00;16.10;;;;;;;3.18;91.96;100499.31;110241;1235;65671;-74
2023/01/16 08:03:51;;;;;;;30.80;16.80;;;;;;;3.18;90.28;100501.19;110301;1237;59938;-75
2023/01/16 08:06:20;;;;;;;30.50;15.00;;;;;;;3.30;90.18;100502.39;110231;1235;60888;-73
2023/01/16 08:08:49;;;;;;;30.10;15.30;;;;;;;3.38;89.16;100508.21;110410;1235;70897;-75
2023/01/16 08:11:38;;;;;;;27.20;14.90;;;;;;;3.48;89.01;100502.56;110189;1235;70273;-78
2023/01/16 08:14:07;;;;;;;29.00;15.00;;;;;;;3.65;91.05;100500.23;110364;1235;70460;-74
2023/01/16 08:16:36;;;;;;;32.10;15.90;;;;;;;3.65;88.67;100497.48;110404;1235;73466;-75
2023/01/16 08:19:05;;;;;;;29.70;14.80;;;;;;;3.62;87.35;100498.98;110314;1236;60718;-74
2023/01/16 08:21:33;;;;;;;32.50;16.20;;;;;;;3.75;86.97;100501.52;110429;1235;60720;-73
2023/01/16 08:24:03;;;;;;;28.70;15.10;;;;;;;3.68;87.03;100495.98;110289;1235;64035;-75
2023/01/16 08:26:32;;;;;;;29.20;15.60;;;;;;;3.78;86.65;100487.42;110327;1235;71688;-74
2023/01/16 08:29:02;;;;;;;33.80;16.90;;;;;;;3.71;85.52;100483.59;110323;1235;68960;-73
2023/01/16 08:31:31;;;;;;;34.90;18.00;;;;;;;3.73;86.96;100482.48;110330;1238;74613;-74
2023/01/16 08:34:00;;;;;;;31.50;16.80;;;;;;;3.63;87.28;100478.83;110136;1238;61676;-74
2023/01/16 08:36:29;;;;;;;31.50;17.30;;;;;;;3.82;87.18;100475.14;110323;1235;59441;-74
2023/01/16 08:38:58;;;;;;;33.70;17.70;;;;;;;3.86;86.84;100473.91;110434;1235;69796;-77
2023/01/16 08:53:00;;;;;;;35.10;17.60;;;;;;;4.23;84.47;100461.94;110129;1235;57421;-74
2023/01/16 08:55:29;;;;;;;31.60;16.80;;;;;;;4.38;84.44;100452.73;110332;1235;73516;-75
2023/01/16 08:57:58;;;;;;;33.40;17.30;;;;;;;4.52;84.30;100449.23;110434;1235;71165;-77
2023/01/16 09:00:29;;;;;;;35.20;18.50;;;;;;;4.44;84.83;100447.80;110468;1235;60280;-76
2023/01/16 09:02:59;;;;;;;38.90;18.40;;;;;;;4.52;83.39;100452.02;110249;1235;73006;-75
2023/01/16 09:05:28;;;;;;;29.00;16.40;;;;;;;4.59;82.98;100454.11;110346;1237;62193;-77
2023/01/16 09:07:57;;;;;;;30.20;16.90;;;;;;;4.68;82.95;100452.76;110370;1235;57139;-75
2023/01/16 09:10:27;;;;;;;35.90;17.50;;;;;;;4.66;82.12;100449.77;110480;1235;70679;-76
2023/01/16 09:15:44;;;;;;;35.40;18.10;;;;;;;4.41;82.42;100439.66;110338;1235;59859;-75
2023/01/16 09:18:13;;;;;;;34.80;18.50;;;;;;;4.56;82.83;100436.63;110462;1235;72987;-76
2023/01/16 09:20:42;;;;;;;31.10;16.70;;;;;;;4.53;82.44;100439.20;110270;1239;61629;-78
2023/01/16 09:23:11;;;;;;;29.90;16.40;;;;;;;4.67;82.44;100437.46;110433;1235;60115;-77
2023/01/16 09:25:40;;;;;;;30.70;17.20;;;;;;;4.62;81.70;100429.77;110089;1237;74146;-76
2023/01/16 09:28:09;;;;;;;34.10;18.20;;;;;;;4.59;81.68;100422.70;110168;1236;71884;-75
2023/01/16 09:30:37;;;;;;;34.50;18.10;;;;;;;4.44;81.78;100413.95;110158;1236;62046;-75
2023/01/16 09:33:06;;;;;;;33.40;17.50;;;;;;;4.59;81.68;100412.34;110260;1237;62998;-74
2023/01/16 09:35:35;;;;;;;36.30;16.90;;;;;;;4.54;81.06;100409.83;110132;1239;57578;-77
2023/01/16 09:38:04;;;;;;;34.80;18.50;;;;;;;4.56;81.69;100405.45;110232;1236;60427;-76
2023/01/16 09:40:33;;;;;;;37.80;17.70;;;;;;;4.58;81.77;100400.00;110184;1236;73189;-77
2023/01/16 09:43:40;;;;;;;36.20;17.90;;;;;;;4.73;81.30;100389.00;110118;1237;71491;-75
2023/01/16 09:46:16;;;;;;;31.60;17.70;;;;;;;4.63;81.06;100383.30;110124;1236;62024;-74
2023/01/16 09:49:09;;;;;;;35.70;17.30;;;;;;;4.58;81.18;100388.56;110187;1238;73777;-75
2023/01/16 09:58:34;;;;;;;39.60;17.30;;;;;;;4.71;81.14;100379.30;110054;1238;59832;-75
2023/01/16 10:00:22;;;;;;;30.40;15.90;;;;;;;4.59;80.66;100360.91;110057;1236;62032;-75
2023/01/16 10:02:51;;;;;;;36.00;17.00;;;;;;;4.56;80.89;100358.32;110277;1236;59970;-76
2023/01/16 10:05:24;;;;;;;38.40;17.80;;;;;;;4.63;81.16;100357.09;110068;1236;63278;-76
2023/01/16 10:08:23;;;;;;;38.50;18.30;;;;;;;4.70;80.74;100356.89;109876;1239;58031;-76
2023/01/16 10:11:02;;;;;;;31.50;15.70;;;;;;;4.77;79.89;100355.66;110108;1238;57491;-75
2023/01/16 10:13:50;;;;;;;36.40;18.00;;;;;;;4.79;80.61;100352.95;110189;1237;72702;-75
2023/01/16 10:16:41;;;;;;;40.90;17.60;;;;;;;4.91;80.63;100345.91;110113;1236;71864;-74
2023/01/16 10:19:39;;;;;;;38.40;17.70;;;;;;;4.93;79.59;100342.55;110190;1237;71573;-74
2023/01/16 10:22:39;;;;;;;36.20;17.80;;;;;;;4.96;79.82;100339.42;110155;1236;63889;-74
2023/01/16 10:25:08;;;;;;;33.70;17.70;;;;;;;5.12;79.58;100329.40;110411;1235;57213;-73
2023/01/16 10:28:35;;;;;;;37.00;18.30;;;;;;;5.20;79.26;100324.80;110378;1235;61536;-75
2023/01/16 10:31:20;;;;;;;37.90;18.50;;;;;;;5.21;78.49;100323.72;110158;1235;62646;-75
2023/01/16 10:34:08;;;;;;;30.80;15.30;;;;;;;5.29;78.38;100315.69;110241;1235;71763;-76
2023/01/16 10:36:47;;;;;;;39.80;17.90;;;;;;;5.40;78.25;100312.49;110335;1238;60467;-74
2023/01/16 10:39:20;;;;;;;34.80;16.70;;;;;;;5.42;78.34;100300.10;110192;1238;63252;-74
2023/01/16 10:50:47;;;;;;;41.90;18.90;;;;;;;5.64;77.23;100287.23;110414;1235;71179;-75
2023/01/16 10:53:16;;;;;;;40.20;18.40;;;;;;;5.73;77.11;100286.38;110063;1235;69591;-74
2023/01/16 10:55:48;;;;;;;29.50;15.60;;;;;;;5.57;76.38;100282.63;110371;1235;73231;-75
2023/01/16 10:58:30;;;;;;;34.40;17.10;;;;;;;5.71;76.79;100280.73;110218;1237;57666;-74
2023/01/16 11:01:23;;;;;;;38.70;17.80;;;;;;;5.91;76.25;100278.23;110280;1235;60629;-76
2023/01/16 11:03:58;;;;;;;29.00;15.20;;;;;;;5.69;76.17;100272.94;110234;1238;63436;-76
2023/01/16 11:06:30;;;;;;;27.00;14.00;;;;;;;5.91;75.87;100268.52;110199;1235;60863;-76
2023/01/16 11:09:06;;;;;;;33.40;14.40;;;;;;;5.84;74.90;100263.42;110321;1235;70446;-74
2023/01/16 11:20:32;;;;;;;28.50;13.40;;;;;;;6.03;74.76;100243.96;110367;1235;71222;-74
2023/01/16 11:23:20;;;;;;;29.00;15.20;;;;;;;6.24;74.30;100240.98;110428;1235;62529;-74
2023/01/16 11:25:53;;;;;;;27.10;14.60;;;;;;;6.07;74.51;100243.23;110444;1235;69499;-74
2023/01/16 11:28:32;;;;;;;24.90;14.40;;;;;;;6.22;74.75;100237.98;110336;1235;73474;-74
2023/01/16 11:31:25;;;;;;;31.20;15.70;;;;;;;6.27;74.18;100232.15;110168;1236;57930;-74
2023/01/16 11:34:01;;;;;;;31.50;15.70;;;;;;;6.24;74.04;100222.80;110393;1235;61191;-76
2023/01/16 11:36:35;;;;;;;30.20;15.50;;;;;;;6.07;74.12;100215.88;110324;1235;73160;-76
2023/01/16 11:39:07;;;;;;;31.10;16.80;;;;;;;6.05;75.01;100215.83;110147;1238;61646;-75
2023/01/16 11:41:37;;;;;;;27.10;14.70;;;;;;;6.11;75.06;100207.84;110313;1238;59981;-75
2023/01/16 11:47:01;;;;;;;31.30;15.20;;;;;;;6.29;74.96;100201.55;110358;1236;60081;-76
2023/01/16 11:49:43;;;;;;;32.40;14.80;;;;;;;6.44;74.78;100197.84;110253;1238;57456;-76
2023/01/16 11:52:28;;;;;;;30.00;14.20;;;;;;;6.36;74.37;100190.55;110040;1238;64513;-75
2023/01/16 11:55:02;;;;;;;30.40;14.70;;;;;;;6.52;74.42;100182.12;110291;1235;72279;-76
2023/01/16 11:58:20;;;;;;;33.40;15.30;;;;;;;6.34;74.37;100170.34;110314;1236;60283;-75
2023/01/16 12:01:06;;;;;;;31.40;15.80;;;;;;;6.46;74.26;100153.13;110347;1235;62236;-75
2023/01/16 12:04:13;;;;;;;26.00;14.30;;;;;;;6.56;74.02;100132.75;110416;1238;57640;-74
2023/01/16 12:07:02;;;;;;;35.20;15.10;;;;;;;6.59;73.57;100128.52;110356;1235;57811;-74
2023/01/16 12:09:37;;;;;;;27.50;15.80;;;;;;;6.63;73.57;100132.48;110355;1238;62097;-74
2023/01/16 12:15:30;;;;;;;31.80;14.50;;;;;;;6.75;74.02;100130.46;110337;1235;69597;-75
2023/01/16 12:18:31;;;;;;;35.00;16.40;;;;;;;6.82;74.56;100131.00;110260;1235;74196;-77
2023/01/16 12:21:21;;;;;;;35.70;17.50;;;;;;;6.93;74.77;100127.36;110204;1236;61801;-75
2023/01/16 12:24:35;;;;;;;35.10;17.10;;;;;;;7.11;74.81;100124.23;109986;1235;61659;-75
2023/01/16 12:27:58;;;;;;;34.60;17.10;;;;;;;7.14;74.72;100121.63;110176;1237;63494;-75
2023/01/16 12:30:36;;;;;;;34.60;18.30;;;;;;;7.11;74.89;100124.73;110301;1238;61683;-77
2023/01/16 12:34:13;;;;;;;30.50;16.60;;;;;;;7.19;74.59;100121.14;110181;1238;60010;-76
2023/01/16 12:37:00;;;;;;;36.60;16.40;;;;;;;7.21;75.54;100118.59;110082;1238;63331;-76
2023/01/16 12:40:21;;;;;;;34.20;16.40;;;;;;;7.01;75.30;100115.58;110271;1237;57188;-75
2023/01/16 12:43:22;;;;;;;32.80;17.40;;;;;;;7.12;75.08;100109.30;110265;1234;61161;-76